createdAt,value
2022-09-07T00:01:07.372Z,97439.00
2022-09-07T00:03:34.383Z,97496.66
2022-09-07T00:06:06.259Z,97571.66
2022-09-07T00:08:33.299Z,97553.97
2022-09-07T00:11:02.810Z,97558.66
2022-09-07T00:13:32.540Z,97557.00
2022-09-07T00:15:59.344Z,97549.53
2022-09-07T00:18:26.132Z,97500.72
2022-09-07T00:21:05.841Z,97533.06
2022-09-07T00:23:34.318Z,97494.06
2022-09-07T00:26:06.929Z,97491.59
2022-09-07T00:28:34.502Z,97556.75
2022-09-07T00:31:01.247Z,97553.50
2022-09-07T00:33:28.896Z,97215.94
2022-09-07T00:35:55.730Z,97554.38
2022-09-07T00:38:22.437Z,97555.25
2022-09-07T00:40:49.458Z,97550.59
2022-09-07T00:43:30.540Z,97559.75
2022-09-07T00:45:57.197Z,97559.75
2022-09-07T00:48:31.398Z,97565.69
2022-09-07T00:51:05.359Z,97561.78
2022-09-07T00:53:39.024Z,97563.34
2022-09-07T00:56:06.764Z,97533.81
2022-09-07T00:58:36.194Z,97550.41
2022-09-07T01:01:03.874Z,97515.84
2022-09-07T01:03:36.124Z,97551.53
2022-09-07T01:06:11.943Z,97546.66
2022-09-07T01:08:38.992Z,97554.31
2022-09-07T01:11:06.332Z,97465.47
2022-09-07T01:13:33.129Z,97513.00
2022-09-07T01:16:06.666Z,97546.09
2022-09-07T01:18:39.044Z,97546.91
2022-09-07T01:21:25.864Z,97541.94
2022-09-07T01:24:07.072Z,97545.75
2022-09-07T01:26:43.846Z,97540.91
2022-09-07T01:29:38.490Z,97449.22
2022-09-07T01:32:25.391Z,97544.75
2022-09-07T01:34:55.020Z,97551.47
2022-09-07T01:37:30.779Z,97557.03
2022-09-07T01:40:26.830Z,97554.31
2022-09-07T01:43:02.443Z,97547.72
2022-09-07T01:45:33.651Z,97483.25
2022-09-07T01:48:06.220Z,97542.16
2022-09-07T01:50:40.921Z,97548.16
2022-09-07T01:53:27.242Z,97516.59
2022-09-07T01:56:01.836Z,97517.91
2022-09-07T01:58:35.220Z,97468.56
2022-09-07T02:01:08.176Z,97533.00
2022-09-07T02:03:51.573Z,97530.53
2022-09-07T02:06:29.474Z,97529.63
2022-09-07T02:09:01.089Z,97487.19
2022-09-07T02:11:37.682Z,97520.66
2022-09-07T02:14:23.668Z,97533.13
2022-09-07T02:17:00.372Z,97514.38
2022-09-07T02:19:30.343Z,97524.81
2022-09-07T02:22:01.020Z,97516.59
2022-09-07T02:24:35.380Z,97039.53
2022-09-07T02:27:12.414Z,97519.13
2022-09-07T02:29:39.400Z,97504.13
2022-09-07T02:32:06.720Z,97522.75
2022-09-07T02:34:33.856Z,97517.88
2022-09-07T02:37:02.811Z,97513.59
2022-09-07T02:39:29.604Z,97512.09
2022-09-07T02:41:56.300Z,97428.19
2022-09-07T02:44:27.641Z,97516.47
2022-09-07T02:47:13.306Z,97514.88
2022-09-07T02:49:51.959Z,97517.50
2022-09-07T02:52:18.639Z,97513.88
2022-09-07T02:54:45.230Z,97520.34
2022-09-07T02:57:17.866Z,97510.97
2022-09-07T03:00:05.876Z,97520.97
2022-09-07T03:02:50.662Z,97520.53
2022-09-07T03:05:36.904Z,97524.88
2022-09-07T03:08:16.136Z,97524.34
2022-09-07T03:10:43.802Z,97463.66
2022-09-07T03:13:23.825Z,97518.19
2022-09-07T03:15:55.565Z,97513.38
2022-09-07T03:18:23.545Z,97418.63
2022-09-07T03:20:50.227Z,97493.22
2022-09-07T03:23:16.927Z,97518.19
2022-09-07T03:25:44.210Z,97517.25
2022-09-07T03:28:11.121Z,97489.16
2022-09-07T03:30:43.041Z,97464.00
2022-09-07T03:33:11.030Z,97529.06
2022-09-07T03:35:37.762Z,97532.22
2022-09-07T03:38:04.451Z,97492.88
2022-09-07T03:40:31.106Z,97526.28
2022-09-07T03:42:57.765Z,97524.06
2022-09-07T03:45:24.442Z,97533.84
2022-09-07T03:47:51.252Z,97227.31
2022-09-07T03:50:18.356Z,97528.84
2022-09-07T03:52:44.987Z,97534.97
2022-09-07T03:55:11.688Z,97435.53
2022-09-07T03:57:39.187Z,97546.50
2022-09-07T04:00:06.923Z,97539.84
2022-09-07T04:02:33.684Z,97540.66
2022-09-07T04:05:00.364Z,97495.72
2022-09-07T04:07:27.075Z,97496.56
2022-09-07T04:09:53.775Z,97522.63
2022-09-07T04:12:20.432Z,97499.19
2022-09-07T04:14:47.187Z,97543.56
2022-09-07T04:17:14.167Z,97555.50
2022-09-07T04:19:40.859Z,97514.72
2022-09-07T04:22:07.486Z,97558.75
2022-09-07T04:24:34.183Z,97548.47
2022-09-07T04:27:02.148Z,97558.97
2022-09-07T04:29:28.813Z,97484.56
2022-09-07T04:31:55.495Z,97557.66
2022-09-07T04:34:22.178Z,97525.31
2022-09-07T04:36:48.877Z,97567.97
2022-09-07T04:39:15.600Z,97569.56
2022-09-07T04:41:42.263Z,97573.66
2022-09-07T04:44:14.796Z,97577.13
2022-09-07T04:46:43.407Z,97568.88
2022-09-07T04:49:11.884Z,97473.56
2022-09-07T04:51:40.043Z,97566.81
2022-09-07T04:54:07.091Z,97548.41
2022-09-07T04:56:34.197Z,97572.16
2022-09-07T04:59:02.165Z,97569.47
2022-09-07T05:01:29.605Z,97572.00
2022-09-07T05:03:56.992Z,97572.84
2022-09-07T05:06:24.221Z,97529.63
2022-09-07T05:08:53.268Z,97575.09
2022-09-07T05:11:27.721Z,97536.03
2022-09-07T05:14:01.242Z,97568.81
2022-09-07T05:16:29.020Z,97583.19
2022-09-07T05:19:01.652Z,97567.75
2022-09-07T05:21:31.303Z,97564.72
2022-09-07T05:23:59.490Z,97549.94
2022-09-07T05:26:29.175Z,97568.50
2022-09-07T05:31:42.566Z,97571.09
2022-09-07T05:36:56.785Z,97484.78
2022-09-07T05:39:23.823Z,97568.97
2022-09-07T05:41:50.540Z,97569.88
2022-09-07T05:47:04.103Z,97562.38
2022-09-07T05:49:30.973Z,97503.63
2022-09-07T05:51:57.690Z,97317.31
2022-09-07T05:54:24.396Z,97563.69
2022-09-07T05:56:51.075Z,97558.13
2022-09-07T05:59:17.927Z,97409.34
2022-09-07T06:01:44.753Z,97558.91
2022-09-07T06:04:11.456Z,97550.13
2022-09-07T06:06:40.884Z,97499.72
2022-09-07T06:09:07.972Z,97470.94
2022-09-07T06:11:34.675Z,97474.13
2022-09-07T06:14:01.340Z,97407.81
2022-09-07T06:16:28.135Z,97427.69
2022-09-07T06:18:55.005Z,97418.84
2022-09-07T06:21:23.957Z,97481.91
2022-09-07T06:23:51.531Z,97546.56
2022-09-07T06:26:19.620Z,97537.66
2022-09-07T06:28:50.208Z,97444.91
2022-09-07T06:31:23.400Z,97538.56
2022-09-07T06:33:51.628Z,97358.16
2022-09-07T06:36:20.991Z,97540.81
2022-09-07T06:38:49.333Z,97537.91
2022-09-07T06:44:12.490Z,97488.97
2022-09-07T06:49:26.607Z,97483.31
2022-09-07T06:51:53.312Z,97379.44
2022-09-07T06:57:09.312Z,97513.16
2022-09-07T06:59:37.280Z,97440.66
2022-09-07T07:02:05.510Z,97506.19
2022-09-07T07:04:37.750Z,97534.47
2022-09-07T07:07:10.043Z,97530.16
2022-09-07T07:09:36.722Z,97517.50
2022-09-07T07:12:03.542Z,97537.19
2022-09-07T07:14:33.803Z,97510.19
2022-09-07T07:17:02.104Z,97525.91
2022-09-07T07:19:28.859Z,97540.38
2022-09-07T07:24:42.262Z,97460.47
2022-09-07T07:27:08.935Z,97373.72
2022-09-07T07:29:35.606Z,97458.25
2022-09-07T07:32:02.574Z,97399.91
2022-09-07T07:34:29.441Z,97521.72
2022-09-07T07:36:56.189Z,97505.63
2022-09-07T07:42:09.505Z,97432.22
2022-09-07T07:44:36.110Z,97320.28
2022-09-07T07:47:02.886Z,97432.97
2022-09-07T07:49:29.555Z,97417.47
2022-09-07T07:54:43.495Z,97539.09
2022-09-07T07:57:10.527Z,97533.28
2022-09-07T07:59:37.420Z,97535.22
2022-09-07T08:02:06.084Z,97532.97
2022-09-07T08:04:35.929Z,97482.63
2022-09-07T08:07:09.528Z,97509.66
2022-09-07T08:09:41.138Z,97434.56
2022-09-07T08:12:09.931Z,97526.63
2022-09-07T08:14:41.202Z,97400.53
2022-09-07T08:17:10.171Z,97513.75
2022-09-07T08:19:37.060Z,97527.13
2022-09-07T08:24:31.855Z,97511.72
2022-09-07T08:26:58.589Z,97414.13
2022-09-07T08:29:25.411Z,97507.53
2022-09-07T08:31:52.192Z,97400.00
2022-09-07T08:34:18.798Z,97445.53
2022-09-07T08:36:45.380Z,97400.06
2022-09-07T08:39:12.037Z,97501.47
2022-09-07T08:41:41.402Z,97502.38
2022-09-07T08:44:19.968Z,97500.81
2022-09-07T08:47:14.223Z,97497.28
2022-09-07T08:50:01.325Z,97498.56
2022-09-07T08:52:38.477Z,97397.25
2022-09-07T08:55:14.851Z,97486.78
2022-09-07T08:57:47.720Z,97396.44
2022-09-07T09:00:17.376Z,97492.22
2022-09-07T09:02:45.648Z,97386.72
2022-09-07T09:05:51.227Z,97489.63
2022-09-07T09:08:54.966Z,97485.06
2022-09-07T09:11:29.263Z,97438.91
2022-09-07T09:14:10.679Z,97455.72
2022-09-07T09:16:55.249Z,97440.22
2022-09-07T09:19:44.867Z,97426.22
2022-09-07T09:22:17.516Z,97451.13
2022-09-07T09:24:57.500Z,97437.06
2022-09-07T09:27:24.139Z,97430.31
2022-09-07T09:29:50.684Z,97410.13
2022-09-07T09:32:39.043Z,97453.25
2022-09-07T09:35:33.020Z,97439.97
2022-09-07T09:37:59.485Z,97441.28
2022-09-07T09:40:34.550Z,97442.19
2022-09-07T09:43:18.615Z,97369.00
2022-09-07T09:48:40.071Z,97390.84
2022-09-07T09:54:06.320Z,97322.03
2022-09-07T09:56:44.328Z,97428.56
2022-09-07T10:05:28.138Z,97404.13
2022-09-07T10:07:54.974Z,97354.59
2022-09-07T10:10:21.689Z,97344.66
2022-09-07T10:12:53.069Z,97402.53
2022-09-07T10:15:41.327Z,97342.28
2022-09-07T10:18:18.776Z,97330.03
2022-09-07T10:20:45.591Z,97359.53
2022-09-07T10:23:23.924Z,97301.44
2022-09-07T10:25:51.239Z,97394.25
2022-09-07T10:28:23.890Z,97275.59
2022-09-07T10:31:15.405Z,97398.19
2022-09-07T10:34:26.823Z,97387.66
2022-09-07T10:37:04.509Z,97382.38
2022-09-07T10:39:43.966Z,97183.47
2022-09-07T10:42:22.331Z,97370.25
2022-09-07T10:44:51.927Z,97377.19
2022-09-07T10:47:32.856Z,97380.50
2022-09-07T10:50:23.671Z,97369.38
2022-09-07T10:52:50.307Z,97367.47
2022-09-07T10:55:26.322Z,97361.09
2022-09-07T10:58:14.428Z,97363.28
2022-09-07T11:00:53.978Z,97161.53
2022-09-07T11:03:39.868Z,97370.25
2022-09-07T11:06:25.799Z,97348.31
2022-09-07T11:09:19.419Z,97368.88
2022-09-07T11:12:03.673Z,97357.84
2022-09-07T11:14:33.194Z,97353.94
2022-09-07T11:17:08.900Z,97327.56
2022-09-07T11:20:16.774Z,97307.09
2022-09-07T11:22:47.788Z,97261.94
2022-09-07T11:25:30.017Z,97329.69
2022-09-07T11:28:02.687Z,97328.44
2022-09-07T11:30:46.372Z,97256.78
2022-09-07T11:33:31.949Z,97322.28
2022-09-07T11:36:09.873Z,97328.31
2022-09-07T11:38:52.898Z,97202.94
2022-09-07T11:41:49.210Z,97330.19
2022-09-07T11:44:24.745Z,97323.28
2022-09-07T11:46:56.408Z,97094.72
2022-09-07T11:49:27.936Z,97330.81
2022-09-07T11:52:34.513Z,97312.81
2022-09-07T11:55:08.040Z,97310.28
2022-09-07T11:58:03.377Z,97303.66
2022-09-07T12:00:52.826Z,97304.13
2022-09-07T12:03:38.134Z,97299.56
2022-09-07T12:06:29.487Z,97291.78
2022-09-07T12:09:20.990Z,97295.72
2022-09-07T12:12:17.793Z,97292.91
2022-09-07T12:15:02.403Z,97292.28
2022-09-07T12:18:08.089Z,97288.63
2022-09-07T12:20:43.841Z,97235.81
2022-09-07T12:23:16.403Z,97281.50
2022-09-07T12:25:48.000Z,97280.78
2022-09-07T12:28:37.584Z,97241.91
2022-09-07T12:31:06.836Z,97264.44
2022-09-07T12:33:36.741Z,97154.78
2022-09-07T12:36:25.836Z,97269.16
2022-09-07T12:39:20.835Z,97282.44
2022-09-07T12:42:31.448Z,97269.09
2022-09-07T12:44:38.196Z,97283.34
2022-09-07T12:47:10.755Z,97274.81
2022-09-07T12:49:43.228Z,97274.78
2022-09-07T12:52:15.642Z,97270.97
2022-09-07T12:55:09.933Z,97238.84
2022-09-07T12:58:17.560Z,97277.66
2022-09-07T13:01:12.293Z,97271.56
2022-09-07T13:03:53.499Z,97267.88
2022-09-07T13:09:24.769Z,97270.16
2022-09-07T13:11:51.552Z,97251.47
2022-09-07T13:14:26.363Z,97267.69
2022-09-07T13:17:39.940Z,97264.72
2022-09-07T13:20:19.044Z,97256.19
2022-09-07T13:22:54.053Z,97260.59
2022-09-07T13:25:21.933Z,97255.66
2022-09-07T13:28:00.640Z,97007.06
2022-09-07T13:30:33.532Z,97257.00
2022-09-07T13:33:25.525Z,97260.44
2022-09-07T13:35:56.808Z,97250.94
2022-09-07T13:38:23.568Z,97234.88
2022-09-07T13:40:53.013Z,97255.69
2022-09-07T13:43:23.088Z,97058.16
2022-09-07T13:45:56.037Z,97236.09
2022-09-07T13:48:25.642Z,97240.34
2022-09-07T13:51:03.999Z,96994.56
2022-09-07T13:53:42.768Z,97236.16
2022-09-07T13:56:15.663Z,97231.84
2022-09-07T13:58:46.378Z,97205.34
2022-09-07T14:01:13.016Z,97225.69
2022-09-07T14:03:49.106Z,97211.47
2022-09-07T14:06:21.253Z,97224.38
2022-09-07T14:08:50.587Z,97148.19
2022-09-07T14:11:25.840Z,97161.16
2022-09-07T14:14:25.207Z,97219.78
2022-09-07T14:17:00.872Z,97218.88
2022-09-07T14:19:39.734Z,97163.78
2022-09-07T14:22:12.058Z,97214.69
2022-09-07T14:24:43.175Z,97213.16
2022-09-07T14:27:39.041Z,97211.59
2022-09-07T14:30:19.152Z,97221.94
2022-09-07T14:33:02.233Z,97220.75
2022-09-07T14:35:33.709Z,97222.72
2022-09-07T14:38:15.833Z,97205.78
2022-09-07T14:40:42.619Z,97142.16
2022-09-07T14:43:35.964Z,97227.50
2022-09-07T14:46:21.092Z,97228.72
2022-09-07T14:48:51.834Z,97206.91
2022-09-07T14:51:34.991Z,97235.94
2022-09-07T14:54:05.713Z,97107.00
2022-09-07T14:56:40.910Z,97231.53
2022-09-07T14:59:47.211Z,97229.31
2022-09-07T15:02:19.659Z,97228.97
2022-09-07T15:04:47.546Z,97222.47
2022-09-07T15:07:30.114Z,97236.50
2022-09-07T15:10:13.174Z,97155.53
2022-09-07T15:12:43.997Z,97202.94
2022-09-07T15:15:31.860Z,97228.25
2022-09-07T15:18:07.554Z,97217.28
2022-09-07T15:20:40.034Z,97178.72
2022-09-07T15:23:12.288Z,97221.88
2022-09-07T15:25:40.703Z,97249.00
2022-09-07T15:28:07.960Z,97194.34
2022-09-07T15:30:34.765Z,97204.34
2022-09-07T15:33:01.475Z,97184.88
2022-09-07T15:35:28.208Z,97140.59
2022-09-07T15:38:04.641Z,97212.19
2022-09-07T15:40:56.411Z,97216.91
2022-09-07T15:43:28.560Z,97109.88
2022-09-07T15:45:55.624Z,97218.94
2022-09-07T15:48:25.325Z,97213.94
2022-09-07T15:51:01.466Z,97163.06
2022-09-07T15:56:16.119Z,97242.06
2022-09-07T15:58:43.756Z,97178.69
2022-09-07T16:03:59.158Z,97216.06
2022-09-07T16:06:26.407Z,97215.69
2022-09-07T16:08:53.686Z,97209.50
2022-09-07T16:11:26.025Z,97219.41
2022-09-07T16:14:01.373Z,97206.94
2022-09-07T16:19:20.576Z,97220.72
2022-09-07T16:21:47.547Z,97114.63
2022-09-07T16:24:14.182Z,97186.59
2022-09-07T16:26:40.758Z,97193.78
2022-09-07T16:29:07.882Z,97098.75
2022-09-07T16:31:35.073Z,97216.81
2022-09-07T16:34:03.265Z,97229.56
2022-09-07T16:36:30.664Z,97222.44
2022-09-07T16:39:00.316Z,96583.84
2022-09-07T16:41:31.937Z,97221.69
2022-09-07T16:43:59.033Z,97209.13
2022-09-07T16:46:28.397Z,97221.44
2022-09-07T16:48:55.262Z,97236.84
2022-09-07T16:51:24.314Z,97218.16
2022-09-07T16:53:53.283Z,97244.72
2022-09-07T16:56:24.603Z,97199.84
2022-09-07T16:58:54.925Z,97199.28
2022-09-07T17:01:24.758Z,97248.03
2022-09-07T17:03:51.596Z,97128.25
2022-09-07T17:06:20.458Z,97264.22
2022-09-07T17:08:47.649Z,97260.97
2022-09-07T17:11:19.549Z,97204.47
2022-09-07T17:13:46.861Z,97270.19
2022-09-07T17:16:22.919Z,97270.09
2022-09-07T17:21:39.741Z,97278.94
2022-09-07T17:24:07.664Z,97282.59
2022-09-07T17:26:34.890Z,97279.09
2022-09-07T17:29:01.725Z,97221.00
2022-09-07T17:34:20.598Z,97279.41
2022-09-07T17:36:47.806Z,97302.41
2022-09-07T17:39:17.210Z,97218.34
2022-09-07T17:41:45.270Z,97311.91
2022-09-07T17:44:12.057Z,97323.19
2022-09-07T17:46:38.869Z,97327.38
2022-09-07T17:49:08.099Z,97220.44
2022-09-07T17:51:35.886Z,96966.88
2022-09-07T17:54:12.943Z,97337.13
2022-09-07T17:56:41.180Z,97355.75
2022-09-07T18:01:55.523Z,97300.56
2022-09-07T18:04:23.222Z,97353.69
2022-09-07T18:06:50.363Z,97346.09
2022-09-07T18:09:17.005Z,97354.38
2022-09-07T18:11:48.632Z,97352.53
2022-09-07T18:14:16.339Z,97359.94
2022-09-07T18:16:44.417Z,97354.16
2022-09-07T18:19:12.407Z,97355.50
2022-09-07T18:21:43.307Z,97334.28
2022-09-07T18:24:28.234Z,97381.47
2022-09-07T18:26:55.325Z,97374.69
2022-09-07T18:29:30.085Z,97327.44
2022-09-07T18:31:59.008Z,97379.47
2022-09-07T18:34:26.438Z,97372.69
2022-09-07T18:36:53.032Z,97374.03
2022-09-07T18:39:19.834Z,97383.06
2022-09-07T18:41:46.499Z,97381.47
2022-09-07T18:47:00.344Z,97383.38
2022-09-07T18:49:26.896Z,97340.91
2022-09-07T18:54:41.373Z,97389.88
2022-09-07T18:57:08.441Z,97356.41
2022-09-07T18:59:35.334Z,97390.84
2022-09-07T19:02:04.901Z,97391.75
2022-09-07T19:07:20.923Z,97073.91
2022-09-07T19:09:48.508Z,97400.75
2022-09-07T19:12:15.670Z,97331.44
2022-09-07T19:14:42.549Z,97361.03
2022-09-07T19:17:11.977Z,97340.25
2022-09-07T19:19:39.695Z,97394.16
2022-09-07T19:22:06.504Z,97393.91
2022-09-07T19:24:33.506Z,97397.94
2022-09-07T19:27:01.036Z,97393.94
2022-09-07T19:29:29.180Z,97389.13
2022-09-07T19:32:05.406Z,97338.81
2022-09-07T19:34:32.941Z,97351.63
2022-09-07T19:36:59.685Z,97342.47
2022-09-07T19:39:26.303Z,97366.84
2022-09-07T19:41:53.320Z,97367.25
2022-09-07T19:44:20.348Z,97419.66
2022-09-07T19:46:46.974Z,97423.69
2022-09-07T19:49:13.822Z,97420.47
2022-09-07T19:51:41.519Z,97422.91
2022-09-07T19:54:12.041Z,97432.47
2022-09-07T19:56:40.723Z,97406.09
2022-09-07T19:59:07.532Z,97420.47
2022-09-07T20:01:35.228Z,97426.44
2022-09-07T20:04:05.116Z,97353.38
2022-09-07T20:06:35.564Z,97410.84
2022-09-07T20:09:02.399Z,97407.28
2022-09-07T20:11:29.249Z,97406.06
2022-09-07T20:13:57.439Z,97419.63
2022-09-07T20:16:25.129Z,97413.25
2022-09-07T20:18:52.019Z,97417.25
2022-09-07T20:21:22.081Z,97369.44
2022-09-07T20:23:49.084Z,97430.91
2022-09-07T20:26:18.916Z,97428.47
2022-09-07T20:28:45.661Z,97403.34
2022-09-07T20:31:17.650Z,97416.53
2022-09-07T20:33:46.309Z,97387.03
2022-09-07T20:36:15.454Z,97450.16
2022-09-07T20:38:53.778Z,97450.19
2022-09-07T20:41:22.051Z,97448.19
2022-09-07T20:43:49.620Z,97406.19
2022-09-07T20:46:17.036Z,97394.13
2022-09-07T20:48:43.929Z,97451.75
2022-09-07T20:51:20.621Z,97456.94
2022-09-07T20:53:48.711Z,97421.78
2022-09-07T20:56:18.031Z,97462.97
2022-09-07T20:58:46.305Z,97462.19
2022-09-07T21:01:15.578Z,97434.13
2022-09-07T21:03:49.180Z,97466.91
2022-09-07T21:06:17.176Z,97440.53
2022-09-07T21:08:45.712Z,97438.97
2022-09-07T21:11:15.444Z,97472.97
2022-09-07T21:13:42.750Z,97468.13
2022-09-07T21:16:12.215Z,97471.75
2022-09-07T21:18:39.219Z,97411.00
2022-09-07T21:21:21.887Z,97403.78
2022-09-07T21:23:48.544Z,97497.72
2022-09-07T21:26:19.705Z,97483.34
2022-09-07T21:28:46.293Z,97459.31
2022-09-07T21:31:12.922Z,97465.31
2022-09-07T21:33:39.547Z,97390.94
2022-09-07T21:36:10.779Z,97478.50
2022-09-07T21:38:39.169Z,97415.69
2022-09-07T21:41:07.857Z,97441.28
2022-09-07T21:43:34.765Z,97452.84
2022-09-07T21:46:09.260Z,97435.22
2022-09-07T21:48:36.599Z,97469.25
2022-09-07T21:51:04.362Z,97478.84
2022-09-07T21:53:31.927Z,97468.03
2022-09-07T21:56:04.674Z,97471.59
2022-09-07T21:58:32.498Z,97466.00
2022-09-07T22:01:03.450Z,97374.69
2022-09-07T22:03:30.119Z,97150.22
2022-09-07T22:06:01.195Z,97473.91
2022-09-07T22:08:27.773Z,97402.59
2022-09-07T22:10:54.429Z,97471.81
2022-09-07T22:13:21.210Z,97278.31
2022-09-07T22:15:48.205Z,97358.69
2022-09-07T22:18:15.049Z,97420.84
2022-09-07T22:20:41.601Z,97376.81
2022-09-07T22:23:08.293Z,97468.81
2022-09-07T22:25:35.014Z,97340.78
2022-09-07T22:28:01.854Z,97447.97
2022-09-07T22:30:28.525Z,97503.56
2022-09-07T22:32:55.083Z,97355.16
2022-09-07T22:35:24.156Z,97447.06
2022-09-07T22:37:50.727Z,97383.66
2022-09-07T22:40:17.455Z,97429.69
2022-09-07T22:42:44.055Z,97420.44
2022-09-07T22:45:10.791Z,97461.72
2022-09-07T22:47:37.403Z,97379.66
2022-09-07T22:50:04.237Z,97451.00
2022-09-07T22:52:30.909Z,97272.38
2022-09-07T22:54:57.452Z,97383.28
2022-09-07T22:57:24.117Z,97448.22
2022-09-07T22:59:51.677Z,97446.78
2022-09-07T23:02:18.323Z,97478.41
2022-09-07T23:04:45.059Z,97439.22
2022-09-07T23:07:11.764Z,97438.84
2022-09-07T23:09:38.325Z,97438.72
2022-09-07T23:12:05.069Z,97440.06
2022-09-07T23:14:31.614Z,97387.63
2022-09-07T23:16:58.210Z,97437.00
2022-09-07T23:19:24.993Z,97434.59
2022-09-07T23:21:51.701Z,97437.69
2022-09-07T23:24:19.131Z,97434.50
2022-09-07T23:26:46.986Z,97430.81
2022-09-07T23:29:14.513Z,97432.03
2022-09-07T23:31:41.620Z,97430.38
2022-09-07T23:34:08.796Z,97428.72
2022-09-07T23:36:36.928Z,97426.22
2022-09-07T23:39:03.973Z,97424.59
2022-09-07T23:41:30.608Z,97366.84
2022-09-07T23:43:57.242Z,97424.50
2022-09-07T23:46:24.071Z,97419.66
2022-09-07T23:48:50.936Z,97426.63
2022-09-07T23:51:22.809Z,97410.00
2022-09-07T23:53:51.151Z,97420.91
2022-09-07T23:56:17.728Z,97417.25
2022-09-07T23:58:44.368Z,97410.88
